createdAt,value
2023-04-05T00:00:00.225Z,90.90
2023-04-05T00:00:12.585Z,90.80
2023-04-05T00:00:24.676Z,90.80
2023-04-05T00:00:36.675Z,90.80
2023-04-05T00:00:48.465Z,90.80
2023-04-05T00:01:00.367Z,90.80
2023-04-05T00:01:12.733Z,90.80
2023-04-05T00:01:25.700Z,91.20
2023-04-05T00:01:37.775Z,90.80
2023-04-05T00:01:50.326Z,90.90
2023-04-05T00:02:02.334Z,90.80
2023-04-05T00:02:14.257Z,90.90
2023-04-05T00:02:30.263Z,90.80
2023-04-05T00:02:42.397Z,91.00
2023-04-05T00:02:55.830Z,91.00
2023-04-05T00:03:10.183Z,91.00
2023-04-05T00:03:22.359Z,91.20
2023-04-05T00:03:34.892Z,91.10
2023-04-05T00:03:47.635Z,91.10
2023-04-05T00:04:00.485Z,91.00
2023-04-05T00:04:14.869Z,91.00
2023-04-05T00:04:27.025Z,91.00
2023-04-05T00:04:50.419Z,91.00
2023-04-05T00:05:03.314Z,91.00
2023-04-05T00:05:15.178Z,91.00
2023-04-05T00:05:30.855Z,91.10
2023-04-05T00:05:42.622Z,91.20
2023-04-05T00:05:55.948Z,91.10
2023-04-05T00:06:08.115Z,91.20
2023-04-05T00:06:26.527Z,91.10
2023-04-05T00:06:39.997Z,91.10
2023-04-05T00:06:53.146Z,91.10
2023-04-05T00:07:08.260Z,91.10
2023-04-05T00:07:21.702Z,91.20
2023-04-05T00:07:35.089Z,91.10
2023-04-05T00:07:48.297Z,91.10
2023-04-05T00:08:01.613Z,91.00
2023-04-05T00:08:18.478Z,91.10
2023-04-05T00:08:30.247Z,91.10
2023-04-05T00:08:44.473Z,91.10
2023-04-05T00:08:57.655Z,91.10
2023-04-05T00:09:09.532Z,91.10
2023-04-05T00:09:21.475Z,91.10
2023-04-05T00:09:33.390Z,91.10
2023-04-05T00:09:45.766Z,91.10
2023-04-05T00:09:58.083Z,91.10
2023-04-05T00:10:10.968Z,91.10
2023-04-05T00:10:23.119Z,91.10
2023-04-05T00:10:34.940Z,91.20
2023-04-05T00:10:46.770Z,91.20
2023-04-05T00:10:58.596Z,91.10
2023-04-05T00:11:10.986Z,91.20
2023-04-05T00:11:23.170Z,91.20
2023-04-05T00:11:35.106Z,91.20
2023-04-05T00:11:47.523Z,91.30
2023-04-05T00:11:59.746Z,91.20
2023-04-05T00:12:12.130Z,91.20
2023-04-05T00:12:26.374Z,91.10
2023-04-05T00:12:38.228Z,91.10
2023-04-05T00:12:51.257Z,91.10
2023-04-05T00:13:03.013Z,91.10
2023-04-05T00:13:15.555Z,91.10
2023-04-05T00:13:27.435Z,91.20
2023-04-05T00:13:39.203Z,91.10
2023-04-05T00:13:51.225Z,91.10
2023-04-05T00:14:03.375Z,91.10
2023-04-05T00:14:15.418Z,91.10
2023-04-05T00:14:27.569Z,91.10
2023-04-05T00:14:39.474Z,91.10
2023-04-05T00:14:51.383Z,91.10
2023-04-05T00:15:04.726Z,91.10
2023-04-05T00:15:16.885Z,91.10
2023-04-05T00:15:28.824Z,91.10
2023-04-05T00:15:41.190Z,91.10
2023-04-05T00:15:53.038Z,91.30
2023-04-05T00:16:05.718Z,91.30
2023-04-05T00:16:17.773Z,91.30
2023-04-05T00:16:29.959Z,91.30
2023-04-05T00:16:42.149Z,91.30
2023-04-05T00:16:54.096Z,91.30
2023-04-05T00:17:06.388Z,91.30
2023-04-05T00:17:18.231Z,91.30
2023-04-05T00:17:31.691Z,91.40
2023-04-05T00:17:44.167Z,91.30
2023-04-05T00:17:56.030Z,91.30
2023-04-05T00:18:07.929Z,91.30
2023-04-05T00:18:21.889Z,91.30
2023-04-05T00:18:34.408Z,91.30
2023-04-05T00:18:50.053Z,91.20
2023-04-05T00:19:02.210Z,91.30
2023-04-05T00:19:14.155Z,91.30
2023-04-05T00:19:26.141Z,91.30
2023-04-05T00:19:38.297Z,91.30
2023-04-05T00:19:57.340Z,91.30
2023-04-05T00:20:13.109Z,91.20
2023-04-05T00:20:24.936Z,91.20
2023-04-05T00:20:37.453Z,91.10
2023-04-05T00:20:52.416Z,91.10
2023-04-05T00:21:04.451Z,91.10
2023-04-05T00:21:16.967Z,91.10
2023-04-05T00:21:30.226Z,91.20
2023-04-05T00:21:42.048Z,91.20
2023-04-05T00:21:54.602Z,91.10
2023-04-05T00:22:06.533Z,91.10
2023-04-05T00:22:20.243Z,91.10
2023-04-05T00:22:35.997Z,91.10
2023-04-05T00:22:50.692Z,91.10
2023-04-05T00:23:02.886Z,91.10
2023-04-05T00:23:16.665Z,91.10
2023-04-05T00:23:29.527Z,91.10
2023-04-05T00:23:41.814Z,91.10
2023-04-05T00:23:58.686Z,91.10
2023-04-05T00:24:15.519Z,91.10
2023-04-05T00:24:29.536Z,91.20
2023-04-05T00:24:43.818Z,91.20
2023-04-05T00:24:56.118Z,91.10
2023-04-05T00:25:08.438Z,91.10
2023-04-05T00:25:21.964Z,91.10
2023-04-05T00:25:33.993Z,91.10
2023-04-05T00:25:45.926Z,91.10
2023-04-05T00:25:57.721Z,91.10
2023-04-05T00:26:09.499Z,91.10
2023-04-05T00:26:21.437Z,91.10
2023-04-05T00:26:33.286Z,91.10
2023-04-05T00:26:45.233Z,91.20
2023-04-05T00:26:57.681Z,91.20
2023-04-05T00:27:09.778Z,91.20
2023-04-05T00:27:21.744Z,91.20
2023-04-05T00:27:33.977Z,91.20
2023-04-05T00:27:46.098Z,91.20
2023-04-05T00:27:57.995Z,91.20
2023-04-05T00:28:10.639Z,91.20
2023-04-05T00:28:23.119Z,91.20
2023-04-05T00:28:35.286Z,91.30
2023-04-05T00:28:48.138Z,91.30
2023-04-05T00:28:59.987Z,91.30
2023-04-05T00:29:11.963Z,91.30
2023-04-05T00:29:23.898Z,91.30
2023-04-05T00:29:36.077Z,91.20
2023-04-05T00:29:47.902Z,91.10
2023-04-05T00:29:59.852Z,91.10
2023-04-05T00:30:12.144Z,91.10
2023-04-05T00:30:24.077Z,91.10
2023-04-05T00:30:36.304Z,91.10
2023-04-05T00:30:48.234Z,91.30
2023-04-05T00:31:00.144Z,91.30
2023-04-05T00:31:12.032Z,91.30
2023-04-05T00:31:24.105Z,91.30
2023-04-05T00:31:36.264Z,91.40
2023-04-05T00:31:48.298Z,91.40
2023-04-05T00:32:00.164Z,91.40
2023-04-05T00:32:12.236Z,91.40
2023-04-05T00:32:24.211Z,91.30
2023-04-05T00:32:36.284Z,91.50
2023-04-05T00:32:49.949Z,91.30
2023-04-05T00:33:02.071Z,91.30
2023-04-05T00:33:13.943Z,91.20
2023-04-05T00:33:25.938Z,91.20
2023-04-05T00:33:37.713Z,91.20
2023-04-05T00:33:49.602Z,91.30
2023-04-05T00:34:01.588Z,91.30
2023-04-05T00:34:13.871Z,91.30
2023-04-05T00:34:25.938Z,91.30
2023-04-05T00:34:38.853Z,91.30
2023-04-05T00:34:50.723Z,91.30
2023-04-05T00:35:02.775Z,91.40
2023-04-05T00:35:14.570Z,91.40
2023-04-05T00:35:29.489Z,91.30
2023-04-05T00:35:41.526Z,91.30
2023-04-05T00:35:53.520Z,91.20
2023-04-05T00:36:23.257Z,91.30
2023-04-05T00:36:35.486Z,91.50
2023-04-05T00:36:47.245Z,91.40
2023-04-05T00:36:59.747Z,91.30
2023-04-05T00:37:12.023Z,91.40
2023-04-05T00:37:23.983Z,91.40
2023-04-05T00:37:36.300Z,91.40
2023-04-05T00:37:48.131Z,91.40
2023-04-05T00:37:59.951Z,91.30
2023-04-05T00:38:11.790Z,91.30
2023-04-05T00:38:23.617Z,91.40
2023-04-05T00:38:35.524Z,91.40
2023-04-05T00:38:47.917Z,91.40
2023-04-05T00:38:59.693Z,91.40
2023-04-05T00:39:11.487Z,91.40
2023-04-05T00:39:23.281Z,91.40
2023-04-05T00:39:35.271Z,91.40
2023-04-05T00:39:47.131Z,91.40
2023-04-05T00:39:59.006Z,91.50
2023-04-05T00:40:10.965Z,91.60
2023-04-05T00:40:23.538Z,91.60
2023-04-05T00:40:36.460Z,91.60
2023-04-05T00:40:48.207Z,91.60
2023-04-05T00:41:00.047Z,91.50
2023-04-05T00:41:12.169Z,91.50
2023-04-05T00:41:24.094Z,91.50
2023-04-05T00:41:39.223Z,91.50
2023-04-05T00:41:51.202Z,91.40
2023-04-05T00:42:04.489Z,91.40
2023-04-05T00:42:16.270Z,91.40
2023-04-05T00:42:28.058Z,91.40
2023-04-05T00:42:39.833Z,91.40
2023-04-05T00:42:51.648Z,91.40
2023-04-05T00:43:03.594Z,91.50
2023-04-05T00:43:15.573Z,91.50
2023-04-05T00:43:27.355Z,91.60
2023-04-05T00:43:39.150Z,91.60
2023-04-05T00:43:52.234Z,91.60
2023-04-05T00:44:04.114Z,91.60
2023-04-05T00:44:15.948Z,91.60
2023-04-05T00:44:28.927Z,91.60
2023-04-05T00:44:41.123Z,91.60
2023-04-05T00:44:52.891Z,91.60
2023-04-05T00:45:05.547Z,91.50
2023-04-05T00:45:17.382Z,91.50
2023-04-05T00:45:29.152Z,91.50
2023-04-05T00:45:42.752Z,91.50
2023-04-05T00:45:55.072Z,91.60
2023-04-05T00:46:07.251Z,91.60
2023-04-05T00:46:19.036Z,91.80
2023-04-05T00:46:30.874Z,91.60
2023-04-05T00:46:42.678Z,91.60
2023-04-05T00:46:55.433Z,91.60
2023-04-05T00:47:10.065Z,91.60
2023-04-05T00:47:21.981Z,91.60
2023-04-05T00:47:33.797Z,91.50
2023-04-05T00:47:45.907Z,91.50
2023-04-05T00:47:57.764Z,91.60
2023-04-05T00:48:09.624Z,91.50
2023-04-05T00:48:21.465Z,91.50
2023-04-05T00:48:33.943Z,91.50
2023-04-05T00:48:46.119Z,91.50
2023-04-05T00:48:57.945Z,91.50
2023-04-05T00:49:09.740Z,91.50
2023-04-05T00:49:21.553Z,91.60
2023-04-05T00:49:34.266Z,91.60
2023-04-05T00:49:46.080Z,91.60
2023-04-05T00:49:57.831Z,91.60
2023-04-05T00:50:11.274Z,91.60
2023-04-05T00:50:23.343Z,91.60
2023-04-05T00:50:35.151Z,91.60
2023-04-05T00:50:49.370Z,91.70
2023-04-05T00:51:01.825Z,91.60
2023-04-05T00:51:13.626Z,91.60
2023-04-05T00:51:25.361Z,91.60
2023-04-05T00:51:38.174Z,91.60
2023-04-05T00:51:50.048Z,91.70
2023-04-05T00:52:02.188Z,91.70
2023-04-05T00:52:14.784Z,91.70
2023-04-05T00:52:27.251Z,91.60
2023-04-05T00:52:39.353Z,91.60
2023-04-05T00:52:51.315Z,91.80
2023-04-05T00:53:03.268Z,91.70
2023-04-05T00:53:15.947Z,91.80
2023-04-05T00:53:28.108Z,91.80
2023-04-05T00:53:40.828Z,91.80
2023-04-05T00:53:53.066Z,91.80
2023-04-05T00:54:05.024Z,91.90
2023-04-05T00:54:16.960Z,91.90
2023-04-05T00:54:29.629Z,91.90
2023-04-05T00:54:43.386Z,91.80
2023-04-05T00:54:55.225Z,91.90
2023-04-05T00:55:07.506Z,91.80
2023-04-05T00:55:19.417Z,91.90
2023-04-05T00:55:34.256Z,91.90
2023-04-05T00:55:49.517Z,91.90
2023-04-05T00:56:01.401Z,91.90
2023-04-05T00:56:13.302Z,91.90
2023-04-05T00:56:25.219Z,91.90
2023-04-05T00:56:37.108Z,91.90
2023-04-05T00:56:48.972Z,91.90
2023-04-05T00:57:00.855Z,91.90
2023-04-05T00:57:12.590Z,91.90
2023-04-05T00:57:25.179Z,91.90
2023-04-05T00:57:39.905Z,92.10
2023-04-05T00:57:51.646Z,91.80
2023-04-05T00:58:03.530Z,91.80
2023-04-05T00:58:19.874Z,91.80
2023-04-05T00:58:32.036Z,91.80
2023-04-05T00:58:43.990Z,91.70
2023-04-05T00:58:55.913Z,91.70
2023-04-05T00:59:07.782Z,91.70
2023-04-05T00:59:20.013Z,91.70
2023-04-05T00:59:31.947Z,91.70
2023-04-05T00:59:43.859Z,91.70
2023-04-05T00:59:58.447Z,91.70
2023-04-05T01:00:11.880Z,91.70
2023-04-05T01:00:24.514Z,91.70
2023-04-05T01:00:40.096Z,91.80
2023-04-05T01:01:09.728Z,91.80
2023-04-05T01:01:22.666Z,91.80
2023-04-05T01:01:34.662Z,91.80
2023-04-05T01:01:55.500Z,91.80
2023-04-05T01:02:32.514Z,91.80
2023-04-05T01:02:49.819Z,91.70
2023-04-05T01:03:02.009Z,91.70
2023-04-05T01:03:13.993Z,91.70
2023-04-05T01:03:27.656Z,91.70
2023-04-05T01:03:41.199Z,91.70
2023-04-05T01:03:54.252Z,91.80
2023-04-05T01:04:07.452Z,91.80
2023-04-05T01:04:22.143Z,91.80
2023-04-05T01:04:37.192Z,91.80
2023-04-05T01:04:51.790Z,91.80
2023-04-05T01:05:05.432Z,91.80
2023-04-05T01:05:37.262Z,91.80
2023-04-05T01:06:09.128Z,91.80
2023-04-05T01:06:28.579Z,91.70
2023-04-05T01:07:33.579Z,91.80
2023-04-05T01:07:48.516Z,91.70
2023-04-05T01:08:18.381Z,91.80
2023-04-05T01:08:37.646Z,91.70
2023-04-05T01:08:56.249Z,91.70
2023-04-05T01:09:29.267Z,91.70
2023-04-05T01:09:53.634Z,91.70
2023-04-05T01:10:06.692Z,91.80
2023-04-05T01:10:18.488Z,91.80
2023-04-05T01:10:33.238Z,91.80
2023-04-05T01:10:59.529Z,91.80
2023-04-05T01:11:11.321Z,91.90
2023-04-05T01:11:23.187Z,91.80
2023-04-05T01:11:35.621Z,91.90
2023-04-05T01:11:47.424Z,91.90
2023-04-05T01:12:01.364Z,91.80
2023-04-05T01:12:18.932Z,92.00
2023-04-05T01:12:33.329Z,92.00
2023-04-05T01:12:45.951Z,92.00
2023-04-05T01:12:57.679Z,92.00
2023-04-05T01:13:09.528Z,92.00
2023-04-05T01:13:21.330Z,92.00
2023-04-05T01:13:33.420Z,92.00
2023-04-05T01:13:48.027Z,92.00
2023-04-05T01:14:00.899Z,91.90
2023-04-05T01:14:12.739Z,91.90
2023-04-05T01:14:26.833Z,91.90
2023-04-05T01:14:52.690Z,91.90
2023-04-05T01:15:04.980Z,91.90
2023-04-05T01:15:19.004Z,92.00
2023-04-05T01:15:30.911Z,92.00
2023-04-05T01:15:45.488Z,92.00
2023-04-05T01:15:57.804Z,92.00
2023-04-05T01:16:10.384Z,92.00
2023-04-05T01:16:22.236Z,92.00
2023-04-05T01:16:34.039Z,91.90
2023-04-05T01:16:45.909Z,91.90
2023-04-05T01:16:58.427Z,91.80
2023-04-05T01:17:10.803Z,92.10
2023-04-05T01:17:24.107Z,91.90
2023-04-05T01:17:39.301Z,91.90
2023-04-05T01:17:54.222Z,91.90
2023-04-05T01:18:06.169Z,91.90
2023-04-05T01:18:18.449Z,91.90
2023-04-05T01:18:31.126Z,91.90
2023-04-05T01:18:46.636Z,92.00
2023-04-05T01:18:58.611Z,92.10
2023-04-05T01:19:13.423Z,92.00
2023-04-05T01:19:27.730Z,92.00
2023-04-05T01:19:42.091Z,92.00
2023-04-05T01:19:58.894Z,92.00
2023-04-05T01:20:11.862Z,92.00
2023-04-05T01:20:26.313Z,92.00
2023-04-05T01:20:46.440Z,92.10
2023-04-05T01:21:07.665Z,92.20
2023-04-05T01:21:34.176Z,92.10
2023-04-05T01:22:26.643Z,92.10
2023-04-05T01:23:01.178Z,92.10
2023-04-05T01:23:18.229Z,92.30
2023-04-05T01:24:09.892Z,92.00
2023-04-05T01:24:52.849Z,92.00
2023-04-05T01:25:16.673Z,92.00
2023-04-05T01:25:52.969Z,92.00
2023-04-05T01:26:16.477Z,92.10
2023-04-05T01:26:38.476Z,92.10
2023-04-05T01:27:22.899Z,92.10
2023-04-05T01:27:59.151Z,92.10
2023-04-05T01:28:20.348Z,92.00
2023-04-05T01:29:05.085Z,92.00
2023-04-05T01:29:34.744Z,92.10
2023-04-05T01:30:14.326Z,92.10
2023-04-05T01:30:44.608Z,92.10
2023-04-05T01:31:18.157Z,92.00
2023-04-05T01:31:41.818Z,92.00
2023-04-05T01:31:59.907Z,92.00
2023-04-05T01:32:17.805Z,92.00
2023-04-05T01:32:32.199Z,91.90
2023-04-05T01:33:05.621Z,92.00
2023-04-05T01:33:38.179Z,92.00
2023-04-05T01:33:56.326Z,92.00
2023-04-05T01:34:20.074Z,92.10
2023-04-05T01:35:04.015Z,92.10
2023-04-05T01:35:24.976Z,92.00
2023-04-05T01:35:51.391Z,92.10
2023-04-05T01:36:15.759Z,92.00
2023-04-05T01:36:32.793Z,92.00
2023-04-05T01:36:55.364Z,92.00
2023-04-05T01:37:08.888Z,92.00
2023-04-05T01:37:22.676Z,91.90
2023-04-05T01:37:34.608Z,92.10
2023-04-05T01:37:49.990Z,92.10
2023-04-05T01:38:03.316Z,92.10
2023-04-05T01:38:18.837Z,92.00
2023-04-05T01:38:30.796Z,92.00
2023-04-05T01:38:42.520Z,91.90
2023-04-05T01:38:54.408Z,92.00
2023-04-05T01:39:06.306Z,92.00
2023-04-05T01:39:18.036Z,91.90
2023-04-05T01:39:30.247Z,91.90
2023-04-05T01:39:42.063Z,91.90
2023-04-05T01:39:53.908Z,91.90
2023-04-05T01:40:06.518Z,92.00
2023-04-05T01:40:18.421Z,92.00
2023-04-05T01:40:31.909Z,92.10
2023-04-05T01:40:43.841Z,92.00
2023-04-05T01:40:55.970Z,92.00
2023-04-05T01:41:07.700Z,92.00
2023-04-05T01:41:19.533Z,92.00
2023-04-05T01:41:31.370Z,91.90
2023-04-05T01:41:43.226Z,91.90
2023-04-05T01:42:01.302Z,92.00
2023-04-05T01:42:13.151Z,91.90
2023-04-05T01:42:26.179Z,92.00
2023-04-05T01:42:38.013Z,92.00
2023-04-05T01:42:49.875Z,92.10
2023-04-05T01:43:02.596Z,92.10
2023-04-05T01:43:15.328Z,92.10
2023-04-05T01:43:27.130Z,92.10
2023-04-05T01:43:38.933Z,92.10
2023-04-05T01:43:50.675Z,92.00
2023-04-05T01:44:02.416Z,92.00
2023-04-05T01:44:14.342Z,92.00
2023-04-05T01:44:26.602Z,92.00
2023-04-05T01:44:38.438Z,92.10
2023-04-05T01:44:50.837Z,92.10
2023-04-05T01:45:02.759Z,92.10
2023-04-05T01:45:14.740Z,92.00
2023-04-05T01:45:26.638Z,92.00
2023-04-05T01:45:38.547Z,92.20
2023-04-05T01:45:50.655Z,91.90
2023-04-05T01:46:02.506Z,91.90
2023-04-05T01:46:14.466Z,91.90
2023-04-05T01:46:26.605Z,91.90
2023-04-05T01:46:38.552Z,91.90
2023-04-05T01:46:50.571Z,92.10
2023-04-05T01:47:02.360Z,92.10
2023-04-05T01:47:14.182Z,92.10
2023-04-05T01:47:25.918Z,92.00
2023-04-05T01:47:37.773Z,92.00
2023-04-05T01:47:49.626Z,92.10
2023-04-05T01:48:01.557Z,92.10
2023-04-05T01:48:13.935Z,92.00
2023-04-05T01:48:25.768Z,92.00
2023-04-05T01:48:37.621Z,92.10
2023-04-05T01:48:49.367Z,92.10
2023-04-05T01:49:01.333Z,92.00
2023-04-05T01:49:13.139Z,92.00
2023-04-05T01:49:24.981Z,92.10
2023-04-05T01:49:36.734Z,92.10
2023-04-05T01:49:48.611Z,92.10
2023-04-05T01:50:00.484Z,92.10
2023-04-05T01:50:12.630Z,92.10
2023-04-05T01:50:24.609Z,92.10
2023-04-05T01:50:36.399Z,92.00
2023-04-05T01:50:48.196Z,92.10
2023-04-05T01:50:59.945Z,92.20
2023-04-05T01:51:11.740Z,92.20
2023-04-05T01:51:23.629Z,92.30
2023-04-05T01:51:35.899Z,92.30
2023-04-05T01:51:47.686Z,92.30
2023-04-05T01:51:59.580Z,92.30
2023-04-05T01:52:11.441Z,92.40
2023-04-05T01:52:23.217Z,92.40
2023-04-05T01:52:35.215Z,92.40
2023-04-05T01:52:47.161Z,92.70
2023-04-05T01:52:58.934Z,92.40
2023-04-05T01:53:10.823Z,92.30
2023-04-05T01:53:22.660Z,92.20
2023-04-05T01:53:34.422Z,92.10
2023-04-05T01:53:46.513Z,92.10
2023-04-05T01:53:58.300Z,92.10
2023-04-05T01:54:10.158Z,92.10
2023-04-05T01:54:21.988Z,92.20
2023-04-05T01:54:33.872Z,92.10
2023-04-05T01:54:45.784Z,92.10
2023-04-05T01:54:57.597Z,92.10
2023-04-05T01:55:09.494Z,92.20
2023-04-05T01:55:21.271Z,92.10
2023-04-05T01:55:33.078Z,92.10
2023-04-05T01:55:44.996Z,92.10
2023-04-05T01:56:03.240Z,92.40
2023-04-05T01:56:15.032Z,92.20
2023-04-05T01:56:27.481Z,92.20
2023-04-05T01:56:39.303Z,92.20
2023-04-05T01:56:51.205Z,92.10
2023-04-05T01:57:03.300Z,92.10
2023-04-05T01:57:15.335Z,92.20
2023-04-05T01:57:27.095Z,92.20
2023-04-05T01:57:39.193Z,92.30
2023-04-05T01:57:52.493Z,92.30
2023-04-05T01:58:04.299Z,92.30
2023-04-05T01:58:16.695Z,92.30
2023-04-05T01:58:28.745Z,92.40
2023-04-05T01:58:40.623Z,92.40
2023-04-05T01:58:52.638Z,92.40
2023-04-05T01:59:04.410Z,92.30
2023-04-05T01:59:16.197Z,92.30
2023-04-05T01:59:28.046Z,92.30
2023-04-05T01:59:40.174Z,92.20
2023-04-05T01:59:52.083Z,92.20
2023-04-05T02:00:04.546Z,92.20
2023-04-05T02:00:16.358Z,92.20
2023-04-05T02:00:28.224Z,92.30
2023-04-05T02:00:40.272Z,92.30
2023-04-05T02:00:55.369Z,92.30
2023-04-05T02:01:07.328Z,92.30
2023-04-05T02:01:19.262Z,92.20
2023-04-05T02:01:31.267Z,92.20
2023-04-05T02:01:43.100Z,92.20
2023-04-05T02:01:54.900Z,92.20
2023-04-05T02:02:06.738Z,92.30
2023-04-05T02:02:18.522Z,92.20
2023-04-05T02:02:30.548Z,92.20
2023-04-05T02:02:42.577Z,92.20
2023-04-05T02:02:54.389Z,92.20
2023-04-05T02:03:06.537Z,92.20
2023-04-05T02:03:18.531Z,92.20
2023-04-05T02:03:30.751Z,92.50
2023-04-05T02:03:42.674Z,92.30
2023-04-05T02:03:54.800Z,92.30
2023-04-05T02:04:06.770Z,92.40
2023-04-05T02:04:18.589Z,92.40
2023-04-05T02:04:30.334Z,92.60
2023-04-05T02:04:42.485Z,92.40
2023-04-05T02:04:54.341Z,92.40
2023-04-05T02:05:06.543Z,92.30
2023-04-05T02:05:18.298Z,92.30
2023-04-05T02:05:30.069Z,92.20
2023-04-05T02:05:45.579Z,92.20
2023-04-05T02:05:57.637Z,92.10
2023-04-05T02:06:09.497Z,92.10
2023-04-05T02:06:21.455Z,92.10
2023-04-05T02:06:33.523Z,92.10
2023-04-05T02:06:45.350Z,92.20
2023-04-05T02:06:57.122Z,92.20
2023-04-05T02:07:08.921Z,92.20
2023-04-05T02:07:20.858Z,92.30
2023-04-05T02:07:32.661Z,92.60
2023-04-05T02:07:44.592Z,92.40
2023-04-05T02:07:56.460Z,92.40
2023-04-05T02:08:08.674Z,92.40
2023-04-05T02:08:20.631Z,92.40
2023-04-05T02:08:32.488Z,92.40
2023-04-05T02:08:44.360Z,92.40
2023-04-05T02:08:56.081Z,92.40
2023-04-05T02:09:07.852Z,92.40
2023-04-05T02:09:19.770Z,92.40
2023-04-05T02:09:31.594Z,92.40
2023-04-05T02:09:43.376Z,92.70
2023-04-05T02:09:55.226Z,92.40
2023-04-05T02:10:07.776Z,92.30
2023-04-05T02:10:20.097Z,92.30
2023-04-05T02:10:31.991Z,92.30
2023-04-05T02:10:44.582Z,92.30
2023-04-05T02:10:56.442Z,92.30
2023-04-05T02:11:08.361Z,92.30
2023-04-05T02:11:20.135Z,92.30
2023-04-05T02:11:31.952Z,92.30
2023-04-05T02:11:43.886Z,92.30
2023-04-05T02:11:56.618Z,92.30
2023-04-05T02:12:08.527Z,92.30
2023-04-05T02:12:20.345Z,92.30
2023-04-05T02:12:32.251Z,92.30
2023-04-05T02:12:44.564Z,92.30
2023-04-05T02:12:56.680Z,92.30
2023-04-05T02:13:08.588Z,92.30
2023-04-05T02:13:22.263Z,92.30
2023-04-05T02:13:34.189Z,92.30
2023-04-05T02:13:46.248Z,92.30
2023-04-05T02:13:58.078Z,92.60
2023-04-05T02:14:10.689Z,92.40
2023-04-05T02:14:24.387Z,92.60
2023-04-05T02:14:36.096Z,92.40
2023-04-05T02:14:47.912Z,92.40
2023-04-05T02:14:59.806Z,92.40
2023-04-05T02:15:12.364Z,92.40
2023-04-05T02:15:24.154Z,92.40
2023-04-05T02:15:35.967Z,92.40
2023-04-05T02:15:50.678Z,92.40
2023-04-05T02:16:02.584Z,92.40
2023-04-05T02:16:15.553Z,92.40
2023-04-05T02:16:27.519Z,92.50
2023-04-05T02:16:39.387Z,92.50
2023-04-05T02:16:51.213Z,92.50
2023-04-05T02:17:03.336Z,92.50
2023-04-05T02:17:15.451Z,92.50
2023-04-05T02:17:34.112Z,92.50
2023-04-05T02:17:46.277Z,92.40
2023-04-05T02:18:02.190Z,92.50
2023-04-05T02:18:14.140Z,92.50
2023-04-05T02:18:31.514Z,92.50
2023-04-05T02:18:44.113Z,92.40
2023-04-05T02:18:58.085Z,92.40
2023-04-05T02:19:11.208Z,92.40
2023-04-05T02:19:23.214Z,92.40
2023-04-05T02:19:46.318Z,92.40
2023-04-05T02:20:02.289Z,92.30
2023-04-05T02:20:14.661Z,92.30
2023-04-05T02:20:26.791Z,92.30
2023-04-05T02:20:38.924Z,92.30
2023-04-05T02:20:51.356Z,92.30
2023-04-05T02:21:04.726Z,92.40
2023-04-05T02:21:17.070Z,92.30
2023-04-05T02:21:28.937Z,92.40
2023-04-05T02:21:40.965Z,92.40
2023-04-05T02:21:54.099Z,92.40
2023-04-05T02:22:05.948Z,92.40
2023-04-05T02:22:17.845Z,92.40
2023-04-05T02:22:30.163Z,92.40
2023-04-05T02:22:45.148Z,92.40
2023-04-05T02:22:57.055Z,92.40
2023-04-05T02:23:09.140Z,92.30
2023-04-05T02:23:21.086Z,92.30
2023-04-05T02:23:33.034Z,92.30
2023-04-05T02:23:44.882Z,92.30
2023-04-05T02:23:56.656Z,92.30
2023-04-05T02:24:08.406Z,92.20
2023-04-05T02:24:20.445Z,92.10
2023-04-05T02:24:32.200Z,92.10
2023-04-05T02:24:44.110Z,92.20
2023-04-05T02:24:55.861Z,92.20
2023-04-05T02:25:11.303Z,92.20
2023-04-05T02:25:23.123Z,92.20
2023-04-05T02:25:34.941Z,92.50
2023-04-05T02:25:46.853Z,92.30
2023-04-05T02:25:58.944Z,92.30
2023-04-05T02:26:10.886Z,92.30
2023-04-05T02:26:22.805Z,92.60
2023-04-05T02:26:34.613Z,92.30
2023-04-05T02:26:46.509Z,92.60
2023-04-05T02:26:58.628Z,92.40
2023-04-05T02:27:10.892Z,92.40
2023-04-05T02:27:22.668Z,92.40
2023-04-05T02:27:34.982Z,92.30
2023-04-05T02:27:46.970Z,92.40
2023-04-05T02:27:58.820Z,92.60
2023-04-05T02:28:11.918Z,92.30
2023-04-05T02:28:23.836Z,92.50
2023-04-05T02:28:35.682Z,92.20
2023-04-05T02:28:47.589Z,92.30
2023-04-05T02:28:59.393Z,92.20
2023-04-05T02:29:11.332Z,92.20
2023-04-05T02:29:23.117Z,92.30
2023-04-05T02:29:34.972Z,92.30
2023-04-05T02:29:47.100Z,92.30
2023-04-05T02:29:59.078Z,92.30
2023-04-05T02:30:13.745Z,92.30
2023-04-05T02:30:26.529Z,92.30
2023-04-05T02:30:38.599Z,92.30
2023-04-05T02:30:50.752Z,92.30
2023-04-05T02:31:03.001Z,92.30
2023-04-05T02:31:14.891Z,92.30
2023-04-05T02:31:27.204Z,92.30
2023-04-05T02:31:39.108Z,92.30
2023-04-05T02:31:50.893Z,92.30
2023-04-05T02:32:02.714Z,92.40
2023-04-05T02:32:14.558Z,92.40
2023-04-05T02:32:26.349Z,92.50
2023-04-05T02:32:38.272Z,92.80
2023-04-05T02:32:50.198Z,92.50
2023-04-05T02:33:02.098Z,92.50
2023-04-05T02:33:13.877Z,92.50
2023-04-05T02:33:25.969Z,92.50
2023-04-05T02:33:38.734Z,92.50
2023-04-05T02:33:50.736Z,92.50
2023-04-05T02:34:02.499Z,92.50
2023-04-05T02:34:14.253Z,92.40
2023-04-05T02:34:27.756Z,92.40
2023-04-05T02:34:41.568Z,92.40
2023-04-05T02:34:53.784Z,92.40
2023-04-05T02:35:06.067Z,92.40
2023-04-05T02:35:17.994Z,92.40
2023-04-05T02:35:29.914Z,92.50
2023-04-05T02:35:42.274Z,92.50
2023-04-05T02:35:54.259Z,92.50
2023-04-05T02:36:10.774Z,92.50
2023-04-05T02:36:25.101Z,92.50
2023-04-05T02:36:37.228Z,92.40
2023-04-05T02:36:52.217Z,92.50
2023-04-05T02:37:04.008Z,92.50
2023-04-05T02:37:16.524Z,92.50
2023-04-05T02:37:28.553Z,92.50
2023-04-05T02:37:41.723Z,92.50
2023-04-05T02:37:53.498Z,92.50
2023-04-05T02:38:05.350Z,92.40
2023-04-05T02:38:17.304Z,92.50
2023-04-05T02:38:29.097Z,92.40
2023-04-05T02:38:44.088Z,92.40
2023-04-05T02:38:56.203Z,92.50
2023-04-05T02:39:08.095Z,92.50
2023-04-05T02:39:20.094Z,92.50
2023-04-05T02:39:32.911Z,92.50
2023-04-05T02:39:46.520Z,92.50
2023-04-05T02:39:58.622Z,92.50
2023-04-05T02:40:13.847Z,92.60
2023-04-05T02:40:26.388Z,92.60
2023-04-05T02:40:42.182Z,92.60
2023-04-05T02:40:55.692Z,92.60
2023-04-05T02:41:11.933Z,92.80
2023-04-05T02:41:25.147Z,92.60
2023-04-05T02:41:39.777Z,92.60
2023-04-05T02:41:53.189Z,92.60
2023-04-05T02:42:07.888Z,92.60
2023-04-05T02:42:27.387Z,92.60
2023-04-05T02:42:42.522Z,92.50
2023-04-05T02:42:54.682Z,92.60
2023-04-05T02:43:15.184Z,92.60
2023-04-05T02:43:27.463Z,92.60
2023-04-05T02:43:39.579Z,92.50
2023-04-05T02:43:51.758Z,92.60
2023-04-05T02:44:03.483Z,92.60
2023-04-05T02:44:15.393Z,92.60
2023-04-05T02:44:27.116Z,92.60
2023-04-05T02:44:38.972Z,92.90
2023-04-05T02:44:51.739Z,92.60
2023-04-05T02:45:03.820Z,92.60
2023-04-05T02:45:15.691Z,92.60
2023-04-05T02:45:28.034Z,92.60
2023-04-05T02:45:39.869Z,92.90
2023-04-05T02:45:52.060Z,92.70
2023-04-05T02:46:04.081Z,92.70
2023-04-05T02:46:16.216Z,92.70
2023-04-05T02:46:28.061Z,92.80
2023-04-05T02:46:39.928Z,92.80
2023-04-05T02:46:51.864Z,92.80
2023-04-05T02:47:03.814Z,92.80
2023-04-05T02:47:21.389Z,92.80
2023-04-05T02:47:33.331Z,92.80
2023-04-05T02:47:45.270Z,92.80
2023-04-05T02:47:57.067Z,92.80
2023-04-05T02:48:08.891Z,92.80
2023-04-05T02:48:20.993Z,92.80
2023-04-05T02:48:32.857Z,93.20
2023-04-05T02:48:45.715Z,93.00
2023-04-05T02:48:57.433Z,93.00
2023-04-05T02:49:09.327Z,93.00
2023-04-05T02:49:21.331Z,93.00
2023-04-05T02:49:33.098Z,92.90
2023-04-05T02:49:44.998Z,93.00
2023-04-05T02:49:56.740Z,93.00
2023-04-05T02:50:08.760Z,92.90
2023-04-05T02:50:21.146Z,92.90
2023-04-05T02:50:32.938Z,92.90
2023-04-05T02:50:49.687Z,92.90
2023-04-05T02:51:01.664Z,92.90
2023-04-05T02:51:13.476Z,92.90
2023-04-05T02:51:25.241Z,93.00
2023-04-05T02:51:37.088Z,93.00
2023-04-05T02:51:48.890Z,93.10
2023-04-05T02:52:00.909Z,93.10
2023-04-05T02:52:12.655Z,93.10
2023-04-05T02:52:24.467Z,93.00
2023-04-05T02:52:37.738Z,93.10
2023-04-05T02:52:50.262Z,93.10
2023-04-05T02:53:01.986Z,93.10
2023-04-05T02:53:13.875Z,93.10
2023-04-05T02:53:25.728Z,93.00
2023-04-05T02:53:37.446Z,93.00
2023-04-05T02:53:49.353Z,93.00
2023-04-05T02:54:04.277Z,93.00
2023-04-05T02:54:16.031Z,92.90
2023-04-05T02:54:27.784Z,92.80
2023-04-05T02:54:39.557Z,92.80
2023-04-05T02:54:51.384Z,92.80
2023-04-05T02:55:06.539Z,92.80